map of MVR home
MVR - Airport
Location
City:  Maroua, Far North (Extrême-Nord), Cameroon
Name:Maroua Salak Airport
ICAO:FKKL
IATA:MVR

Details
Type:Airport (Aerodrome, Airfield)
Use:Public/Civil, International (customs port of entry)
Latitude:10°27'05"N (10.451392)
Longitude:14°15'26"E (14.257361)
Datum:WGS 1984
Elevation:1390 ft (424 m)
Variation:0.94°E (WMM2015 magnetic declination)
0.10° annual change
Runways:1
Longest:6890 × 148 ft (2100 × 45 m), paved

Time
Time Zone:UTC+1
Local Time:

Weather
METAR:FKKL 161300Z 09010KT 030V150 9999 FEW040 FEW045TCU 37/13 Q1011
TAF:FKKL 161100Z 1612/1712 VRB08KT 9999 FEW030 PROB30
TEMPO 1615/1620 TS BKN013 FEW023CB

Related Locations
Nearby:
Farthest:MHX: 12127 mi / 19517 km
Manihiki Island (Manuhiki, Tapuahua, Humphrey Island), CK

Find:

   beyond  
but within

Other Information
Maps:
NOTAMs:
Links:
Sources:

  
  • flag of Cameroon
  

Sectional Chart

Flight Planning
at skyvector.com

Satellite Image

Google Maps Satellite view

 

Copyright © 2004-2018 Karl L. Swartz. All rights reserved.
The Great Circle Mapper name and logo are trademarks of the Great Circle Mapper.
All other trademarks mentioned herein belong to their respective owners.
Please see credits for attibutions and further copyright information.

  Follow gcmap on Facebook Follow gcmap on Twitter Follow gcmap on Google+ GCmap on LinkedIn

hCard Microformat

Geo Microformat